sensor_id;sensor_type;location;lat;lon;timestamp;temperature;humidity
7502;DHT22;3792;47.740;7.606;2023-04-30T00:00:32;15.70;99.90
7502;DHT22;3792;47.740;7.606;2023-04-30T00:02:59;15.80;99.90
7502;DHT22;3792;47.740;7.606;2023-04-30T00:05:26;15.70;99.90
7502;DHT22;3792;47.740;7.606;2023-04-30T00:07:53;15.70;99.90
7502;DHT22;3792;47.740;7.606;2023-04-30T00:10:21;15.70;99.90
7502;DHT22;3792;47.740;7.606;2023-04-30T00:12:48;15.60;99.90
7502;DHT22;3792;47.740;7.606;2023-04-30T00:15:15;15.60;99.90
7502;DHT22;3792;47.740;7.606;2023-04-30T00:17:42;15.40;99.90
7502;DHT22;3792;47.740;7.606;2023-04-30T00:20:11;15.40;99.90
7502;DHT22;3792;47.740;7.606;2023-04-30T00:22:38;15.30;99.90
7502;DHT22;3792;47.740;7.606;2023-04-30T00:25:05;15.20;99.90
7502;DHT22;3792;47.740;7.606;2023-04-30T00:27:34;15.00;99.90
7502;DHT22;3792;47.740;7.606;2023-04-30T00:30:01;14.70;99.90
7502;DHT22;3792;47.740;7.606;2023-04-30T00:32:28;14.30;99.90
7502;DHT22;3792;47.740;7.606;2023-04-30T00:34:55;14.00;99.90
7502;DHT22;3792;47.740;7.606;2023-04-30T00:37:22;13.80;99.90
7502;DHT22;3792;47.740;7.606;2023-04-30T00:39:49;13.70;99.90
7502;DHT22;3792;47.740;7.606;2023-04-30T00:42:16;13.50;99.90
7502;DHT22;3792;47.740;7.606;2023-04-30T00:44:44;13.40;99.90
7502;DHT22;3792;47.740;7.606;2023-04-30T00:47:11;13.30;99.90
7502;DHT22;3792;47.740;7.606;2023-04-30T00:49:39;13.10;99.90
7502;DHT22;3792;47.740;7.606;2023-04-30T00:52:06;13.00;99.90
7502;DHT22;3792;47.740;7.606;2023-04-30T00:54:33;12.90;99.90
7502;DHT22;3792;47.740;7.606;2023-04-30T00:57:01;12.80;99.90
7502;DHT22;3792;47.740;7.606;2023-04-30T00:59:32;12.80;99.90
7502;DHT22;3792;47.740;7.606;2023-04-30T01:02:01;12.80;99.90
7502;DHT22;3792;47.740;7.606;2023-04-30T01:04:28;12.80;99.90
7502;DHT22;3792;47.740;7.606;2023-04-30T01:06:56;12.70;99.90
7502;DHT22;3792;47.740;7.606;2023-04-30T01:09:24;12.70;99.90
7502;DHT22;3792;47.740;7.606;2023-04-30T01:11:58;12.70;99.90
7502;DHT22;3792;47.740;7.606;2023-04-30T01:14:28;12.60;99.90
7502;DHT22;3792;47.740;7.606;2023-04-30T01:17:05;12.50;99.90
7502;DHT22;3792;47.740;7.606;2023-04-30T01:19:37;12.40;99.90
7502;DHT22;3792;47.740;7.606;2023-04-30T01:22:10;12.40;99.90
7502;DHT22;3792;47.740;7.606;2023-04-30T01:24:58;12.40;99.90
7502;DHT22;3792;47.740;7.606;2023-04-30T01:30:09;12.30;99.90
7502;DHT22;3792;47.740;7.606;2023-04-30T01:32:37;12.30;99.90
7502;DHT22;3792;47.740;7.606;2023-04-30T01:35:05;12.20;99.90
7502;DHT22;3792;47.740;7.606;2023-04-30T01:37:38;12.10;99.90
7502;DHT22;3792;47.740;7.606;2023-04-30T01:40:20;12.10;99.90
7502;DHT22;3792;47.740;7.606;2023-04-30T01:42:54;11.90;99.90
7502;DHT22;3792;47.740;7.606;2023-04-30T01:45:32;11.90;99.90
7502;DHT22;3792;47.740;7.606;2023-04-30T01:48:10;11.90;99.90
7502;DHT22;3792;47.740;7.606;2023-04-30T01:50:46;11.80;99.90
7502;DHT22;3792;47.740;7.606;2023-04-30T01:53:20;11.80;99.90
7502;DHT22;3792;47.740;7.606;2023-04-30T01:55:51;11.70;99.90
7502;DHT22;3792;47.740;7.606;2023-04-30T01:58:22;11.70;99.90
7502;DHT22;3792;47.740;7.606;2023-04-30T02:00:50;11.60;99.90
7502;DHT22;3792;47.740;7.606;2023-04-30T02:03:19;11.60;99.90
7502;DHT22;3792;47.740;7.606;2023-04-30T02:05:46;11.50;99.90
7502;DHT22;3792;47.740;7.606;2023-04-30T02:08:13;11.60;99.90
7502;DHT22;3792;47.740;7.606;2023-04-30T02:10:41;11.60;99.90
7502;DHT22;3792;47.740;7.606;2023-04-30T02:13:08;11.80;99.90
7502;DHT22;3792;47.740;7.606;2023-04-30T02:15:35;11.80;99.90
7502;DHT22;3792;47.740;7.606;2023-04-30T02:18:03;11.90;99.90
7502;DHT22;3792;47.740;7.606;2023-04-30T02:20:30;12.00;99.90
7502;DHT22;3792;47.740;7.606;2023-04-30T02:22:57;12.00;99.90
7502;DHT22;3792;47.740;7.606;2023-04-30T02:25:24;12.10;99.90
7502;DHT22;3792;47.740;7.606;2023-04-30T02:27:52;12.10;99.90
7502;DHT22;3792;47.740;7.606;2023-04-30T02:30:19;12.10;99.90
7502;DHT22;3792;47.740;7.606;2023-04-30T02:32:46;12.20;99.90
7502;DHT22;3792;47.740;7.606;2023-04-30T02:35:14;12.20;99.90
7502;DHT22;3792;47.740;7.606;2023-04-30T02:37:41;12.20;99.90
7502;DHT22;3792;47.740;7.606;2023-04-30T02:40:09;12.30;99.90
7502;DHT22;3792;47.740;7.606;2023-04-30T02:42:36;12.30;99.90
7502;DHT22;3792;47.740;7.606;2023-04-30T02:45:04;12.30;99.90
7502;DHT22;3792;47.740;7.606;2023-04-30T02:47:31;12.30;99.90
7502;DHT22;3792;47.740;7.606;2023-04-30T02:49:58;12.30;99.90
7502;DHT22;3792;47.740;7.606;2023-04-30T02:52:27;12.20;99.90
7502;DHT22;3792;47.740;7.606;2023-04-30T02:54:54;12.10;99.90
7502;DHT22;3792;47.740;7.606;2023-04-30T02:57:21;11.90;99.90
7502;DHT22;3792;47.740;7.606;2023-04-30T02:59:48;11.80;99.90
7502;DHT22;3792;47.740;7.606;2023-04-30T03:02:15;11.80;99.90
7502;DHT22;3792;47.740;7.606;2023-04-30T03:04:45;11.80;99.90
7502;DHT22;3792;47.740;7.606;2023-04-30T03:07:13;11.90;99.90
7502;DHT22;3792;47.740;7.606;2023-04-30T03:09:42;11.90;99.90
7502;DHT22;3792;47.740;7.606;2023-04-30T03:12:09;11.90;99.90
7502;DHT22;3792;47.740;7.606;2023-04-30T03:14:36;12.00;99.90
7502;DHT22;3792;47.740;7.606;2023-04-30T03:17:03;12.00;99.90
7502;DHT22;3792;47.740;7.606;2023-04-30T03:19:30;12.10;99.90
7502;DHT22;3792;47.740;7.606;2023-04-30T03:21:57;12.10;99.90
7502;DHT22;3792;47.740;7.606;2023-04-30T03:24:24;12.10;99.90
7502;DHT22;3792;47.740;7.606;2023-04-30T03:26:53;12.10;99.90
7502;DHT22;3792;47.740;7.606;2023-04-30T03:29:20;12.10;99.90
7502;DHT22;3792;47.740;7.606;2023-04-30T03:31:47;12.10;99.90
7502;DHT22;3792;47.740;7.606;2023-04-30T03:34:14;12.20;99.90
7502;DHT22;3792;47.740;7.606;2023-04-30T03:36:41;12.20;99.90
7502;DHT22;3792;47.740;7.606;2023-04-30T03:39:08;12.20;99.90
7502;DHT22;3792;47.740;7.606;2023-04-30T03:41:36;12.20;99.90
7502;DHT22;3792;47.740;7.606;2023-04-30T03:44:04;12.20;99.90
7502;DHT22;3792;47.740;7.606;2023-04-30T03:46:33;12.20;99.90
7502;DHT22;3792;47.740;7.606;2023-04-30T03:49:00;12.30;99.90
7502;DHT22;3792;47.740;7.606;2023-04-30T03:51:27;12.30;99.90
7502;DHT22;3792;47.740;7.606;2023-04-30T03:53:54;12.30;99.90
7502;DHT22;3792;47.740;7.606;2023-04-30T03:56:21;12.30;99.90
7502;DHT22;3792;47.740;7.606;2023-04-30T03:58:48;12.30;99.90
7502;DHT22;3792;47.740;7.606;2023-04-30T04:01:16;12.30;99.90
7502;DHT22;3792;47.740;7.606;2023-04-30T04:03:44;12.30;99.90
7502;DHT22;3792;47.740;7.606;2023-04-30T04:06:11;12.30;99.90
7502;DHT22;3792;47.740;7.606;2023-04-30T04:08:38;12.30;99.90
7502;DHT22;3792;47.740;7.606;2023-04-30T04:11:07;12.30;99.90
7502;DHT22;3792;47.740;7.606;2023-04-30T04:13:34;12.20;99.90
7502;DHT22;3792;47.740;7.606;2023-04-30T04:16:02;12.20;99.90
7502;DHT22;3792;47.740;7.606;2023-04-30T04:18:30;12.20;99.90
7502;DHT22;3792;47.740;7.606;2023-04-30T04:20:57;12.10;99.90
7502;DHT22;3792;47.740;7.606;2023-04-30T04:23:26;12.10;99.90
7502;DHT22;3792;47.740;7.606;2023-04-30T04:25:53;12.10;99.90
7502;DHT22;3792;47.740;7.606;2023-04-30T04:28:20;12.10;99.90
7502;DHT22;3792;47.740;7.606;2023-04-30T04:30:47;12.10;99.90
7502;DHT22;3792;47.740;7.606;2023-04-30T04:33:14;12.20;99.90
7502;DHT22;3792;47.740;7.606;2023-04-30T04:35:43;12.10;99.90
7502;DHT22;3792;47.740;7.606;2023-04-30T04:38:10;12.10;99.90
7502;DHT22;3792;47.740;7.606;2023-04-30T04:40:37;12.10;99.90
7502;DHT22;3792;47.740;7.606;2023-04-30T04:43:04;12.10;99.90
7502;DHT22;3792;47.740;7.606;2023-04-30T04:45:32;12.10;99.90
7502;DHT22;3792;47.740;7.606;2023-04-30T04:47:59;12.10;99.90
7502;DHT22;3792;47.740;7.606;2023-04-30T04:50:26;12.20;99.90
7502;DHT22;3792;47.740;7.606;2023-04-30T04:52:54;12.20;99.90
7502;DHT22;3792;47.740;7.606;2023-04-30T04:55:21;12.20;99.90
7502;DHT22;3792;47.740;7.606;2023-04-30T04:57:48;12.20;99.90
7502;DHT22;3792;47.740;7.606;2023-04-30T05:00:16;12.20;99.90
7502;DHT22;3792;47.740;7.606;2023-04-30T05:02:43;12.30;99.90
7502;DHT22;3792;47.740;7.606;2023-04-30T05:05:10;12.30;99.90
7502;DHT22;3792;47.740;7.606;2023-04-30T05:07:37;12.30;99.90
7502;DHT22;3792;47.740;7.606;2023-04-30T05:10:07;12.30;99.90
7502;DHT22;3792;47.740;7.606;2023-04-30T05:12:34;12.30;99.90
7502;DHT22;3792;47.740;7.606;2023-04-30T05:15:01;12.30;99.90
7502;DHT22;3792;47.740;7.606;2023-04-30T05:17:29;12.30;99.90
7502;DHT22;3792;47.740;7.606;2023-04-30T05:19:56;12.40;99.90
7502;DHT22;3792;47.740;7.606;2023-04-30T05:22:24;12.40;99.90
7502;DHT22;3792;47.740;7.606;2023-04-30T05:24:51;12.50;99.90
7502;DHT22;3792;47.740;7.606;2023-04-30T05:27:19;12.60;99.90
7502;DHT22;3792;47.740;7.606;2023-04-30T05:29:46;12.60;99.90
7502;DHT22;3792;47.740;7.606;2023-04-30T05:32:13;12.60;99.90
7502;DHT22;3792;47.740;7.606;2023-04-30T05:34:40;12.60;99.90
7502;DHT22;3792;47.740;7.606;2023-04-30T05:37:07;12.60;99.90
7502;DHT22;3792;47.740;7.606;2023-04-30T05:39:34;12.60;99.90
7502;DHT22;3792;47.740;7.606;2023-04-30T05:42:01;12.70;99.90
7502;DHT22;3792;47.740;7.606;2023-04-30T05:44:30;12.70;99.90
7502;DHT22;3792;47.740;7.606;2023-04-30T05:46:57;12.70;99.90
7502;DHT22;3792;47.740;7.606;2023-04-30T05:49:24;12.70;99.90
7502;DHT22;3792;47.740;7.606;2023-04-30T05:51:51;12.70;99.90
7502;DHT22;3792;47.740;7.606;2023-04-30T05:54:18;12.70;99.90
7502;DHT22;3792;47.740;7.606;2023-04-30T05:56:45;12.70;99.90
7502;DHT22;3792;47.740;7.606;2023-04-30T05:59:12;12.70;99.90
7502;DHT22;3792;47.740;7.606;2023-04-30T06:01:40;12.70;99.90
7502;DHT22;3792;47.740;7.606;2023-04-30T06:04:07;12.70;99.90
7502;DHT22;3792;47.740;7.606;2023-04-30T06:06:34;12.80;99.90
7502;DHT22;3792;47.740;7.606;2023-04-30T06:09:02;12.70;99.90
7502;DHT22;3792;47.740;7.606;2023-04-30T06:11:29;12.70;99.90
7502;DHT22;3792;47.740;7.606;2023-04-30T06:13:56;12.70;99.90
7502;DHT22;3792;47.740;7.606;2023-04-30T06:16:23;12.70;99.90
7502;DHT22;3792;47.740;7.606;2023-04-30T06:18:52;12.70;99.90
7502;DHT22;3792;47.740;7.606;2023-04-30T06:21:19;12.80;99.90
7502;DHT22;3792;47.740;7.606;2023-04-30T06:23:46;12.90;99.90
7502;DHT22;3792;47.740;7.606;2023-04-30T06:26:13;13.00;99.90
7502;DHT22;3792;47.740;7.606;2023-04-30T06:28:40;13.10;99.90
7502;DHT22;3792;47.740;7.606;2023-04-30T06:31:07;13.20;99.90
7502;DHT22;3792;47.740;7.606;2023-04-30T06:33:34;13.30;99.90
7502;DHT22;3792;47.740;7.606;2023-04-30T06:36:03;13.40;99.90
7502;DHT22;3792;47.740;7.606;2023-04-30T06:38:30;13.50;99.90
7502;DHT22;3792;47.740;7.606;2023-04-30T06:40:57;13.60;99.90
7502;DHT22;3792;47.740;7.606;2023-04-30T06:43:24;13.60;99.90
7502;DHT22;3792;47.740;7.606;2023-04-30T06:45:51;13.80;99.90
7502;DHT22;3792;47.740;7.606;2023-04-30T06:48:18;14.00;99.90
7502;DHT22;3792;47.740;7.606;2023-04-30T06:50:46;14.00;99.90
7502;DHT22;3792;47.740;7.606;2023-04-30T06:53:14;14.10;99.90
7502;DHT22;3792;47.740;7.606;2023-04-30T06:55:41;13.90;99.90
7502;DHT22;3792;47.740;7.606;2023-04-30T06:58:08;14.00;99.90
7502;DHT22;3792;47.740;7.606;2023-04-30T07:00:35;13.90;99.90
7502;DHT22;3792;47.740;7.606;2023-04-30T07:03:02;14.00;99.90
7502;DHT22;3792;47.740;7.606;2023-04-30T07:05:30;14.10;99.90
7502;DHT22;3792;47.740;7.606;2023-04-30T07:07:57;14.10;99.90
7502;DHT22;3792;47.740;7.606;2023-04-30T07:10:26;14.20;99.90
7502;DHT22;3792;47.740;7.606;2023-04-30T07:12:53;14.10;99.90
7502;DHT22;3792;47.740;7.606;2023-04-30T07:15:20;14.20;99.90
7502;DHT22;3792;47.740;7.606;2023-04-30T07:17:47;14.10;99.90
7502;DHT22;3792;47.740;7.606;2023-04-30T07:20:14;14.10;99.90
7502;DHT22;3792;47.740;7.606;2023-04-30T07:22:41;14.00;99.90
7502;DHT22;3792;47.740;7.606;2023-04-30T07:25:10;14.10;99.90
7502;DHT22;3792;47.740;7.606;2023-04-30T07:27:39;14.00;99.90
7502;DHT22;3792;47.740;7.606;2023-04-30T07:30:07;14.20;99.90
7502;DHT22;3792;47.740;7.606;2023-04-30T07:32:35;14.20;99.90
7502;DHT22;3792;47.740;7.606;2023-04-30T07:35:05;14.20;99.90
7502;DHT22;3792;47.740;7.606;2023-04-30T07:37:32;14.30;99.90
7502;DHT22;3792;47.740;7.606;2023-04-30T07:39:59;14.50;99.90
7502;DHT22;3792;47.740;7.606;2023-04-30T07:42:27;14.70;99.90
7502;DHT22;3792;47.740;7.606;2023-04-30T07:44:55;14.80;99.90
7502;DHT22;3792;47.740;7.606;2023-04-30T07:47:23;14.60;99.90
7502;DHT22;3792;47.740;7.606;2023-04-30T07:49:50;14.50;99.90
7502;DHT22;3792;47.740;7.606;2023-04-30T07:52:17;14.60;99.90
7502;DHT22;3792;47.740;7.606;2023-04-30T07:54:44;14.70;99.90
7502;DHT22;3792;47.740;7.606;2023-04-30T07:57:12;14.80;99.90
7502;DHT22;3792;47.740;7.606;2023-04-30T07:59:39;14.90;99.90
7502;DHT22;3792;47.740;7.606;2023-04-30T08:02:07;14.80;99.90
7502;DHT22;3792;47.740;7.606;2023-04-30T08:04:35;14.90;99.90
7502;DHT22;3792;47.740;7.606;2023-04-30T08:07:02;14.90;99.90
7502;DHT22;3792;47.740;7.606;2023-04-30T08:09:30;15.10;99.90
7502;DHT22;3792;47.740;7.606;2023-04-30T08:11:57;15.10;99.90
7502;DHT22;3792;47.740;7.606;2023-04-30T08:14:24;15.30;99.90
7502;DHT22;3792;47.740;7.606;2023-04-30T08:16:51;15.30;99.90
7502;DHT22;3792;47.740;7.606;2023-04-30T08:19:20;15.40;99.90
7502;DHT22;3792;47.740;7.606;2023-04-30T08:21:47;15.40;99.90
7502;DHT22;3792;47.740;7.606;2023-04-30T08:24:14;15.40;99.90
7502;DHT22;3792;47.740;7.606;2023-04-30T08:26:41;15.40;99.90
7502;DHT22;3792;47.740;7.606;2023-04-30T08:29:08;15.50;99.90
7502;DHT22;3792;47.740;7.606;2023-04-30T08:31:35;15.60;99.90
7502;DHT22;3792;47.740;7.606;2023-04-30T08:34:02;15.70;99.90
7502;DHT22;3792;47.740;7.606;2023-04-30T08:36:30;15.80;99.90
7502;DHT22;3792;47.740;7.606;2023-04-30T08:38:57;15.90;99.90
7502;DHT22;3792;47.740;7.606;2023-04-30T08:41:31;15.90;99.90
7502;DHT22;3792;47.740;7.606;2023-04-30T08:44:00;16.00;99.90
7502;DHT22;3792;47.740;7.606;2023-04-30T08:46:31;16.10;99.90
7502;DHT22;3792;47.740;7.606;2023-04-30T08:48:58;16.20;99.90
7502;DHT22;3792;47.740;7.606;2023-04-30T08:51:26;16.30;99.90
7502;DHT22;3792;47.740;7.606;2023-04-30T08:53:54;16.40;99.90
7502;DHT22;3792;47.740;7.606;2023-04-30T08:56:22;16.60;99.90
7502;DHT22;3792;47.740;7.606;2023-04-30T08:58:50;16.80;99.90
7502;DHT22;3792;47.740;7.606;2023-04-30T09:01:17;16.90;99.90
7502;DHT22;3792;47.740;7.606;2023-04-30T09:03:44;17.00;99.90
7502;DHT22;3792;47.740;7.606;2023-04-30T09:06:14;16.90;99.90
7502;DHT22;3792;47.740;7.606;2023-04-30T09:08:43;16.90;99.90
7502;DHT22;3792;47.740;7.606;2023-04-30T09:11:23;17.00;99.90
7502;DHT22;3792;47.740;7.606;2023-04-30T09:13:52;17.10;99.90
7502;DHT22;3792;47.740;7.606;2023-04-30T09:16:19;17.00;99.90
7502;DHT22;3792;47.740;7.606;2023-04-30T09:18:48;16.90;99.90
7502;DHT22;3792;47.740;7.606;2023-04-30T09:21:15;17.10;99.90
7502;DHT22;3792;47.740;7.606;2023-04-30T09:23:53;17.10;99.90
7502;DHT22;3792;47.740;7.606;2023-04-30T09:26:29;17.20;99.90
7502;DHT22;3792;47.740;7.606;2023-04-30T09:28:58;17.30;99.90
7502;DHT22;3792;47.740;7.606;2023-04-30T09:31:25;17.00;99.90
7502;DHT22;3792;47.740;7.606;2023-04-30T09:33:52;17.10;99.90
7502;DHT22;3792;47.740;7.606;2023-04-30T09:36:20;17.00;99.90
7502;DHT22;3792;47.740;7.606;2023-04-30T09:38:47;17.00;99.90
7502;DHT22;3792;47.740;7.606;2023-04-30T09:41:21;16.90;99.90
7502;DHT22;3792;47.740;7.606;2023-04-30T09:43:50;17.00;99.90
7502;DHT22;3792;47.740;7.606;2023-04-30T09:46:18;16.90;99.90
7502;DHT22;3792;47.740;7.606;2023-04-30T09:48:46;16.90;99.90
7502;DHT22;3792;47.740;7.606;2023-04-30T09:51:14;16.90;99.90
7502;DHT22;3792;47.740;7.606;2023-04-30T09:53:42;16.90;99.90
7502;DHT22;3792;47.740;7.606;2023-04-30T09:56:11;17.00;99.90
7502;DHT22;3792;47.740;7.606;2023-04-30T09:58:43;17.10;99.90
7502;DHT22;3792;47.740;7.606;2023-04-30T10:01:13;17.20;99.90
7502;DHT22;3792;47.740;7.606;2023-04-30T10:03:41;17.20;99.90
7502;DHT22;3792;47.740;7.606;2023-04-30T10:06:11;17.30;99.90
7502;DHT22;3792;47.740;7.606;2023-04-30T10:08:41;17.40;99.90
7502;DHT22;3792;47.740;7.606;2023-04-30T10:11:11;17.50;99.90
7502;DHT22;3792;47.740;7.606;2023-04-30T10:13:46;17.70;99.90
7502;DHT22;3792;47.740;7.606;2023-04-30T10:16:26;17.80;99.90
7502;DHT22;3792;47.740;7.606;2023-04-30T10:19:00;17.90;99.90
7502;DHT22;3792;47.740;7.606;2023-04-30T10:21:29;17.90;99.90
7502;DHT22;3792;47.740;7.606;2023-04-30T10:23:57;17.80;99.90
7502;DHT22;3792;47.740;7.606;2023-04-30T10:26:24;17.80;99.90
7502;DHT22;3792;47.740;7.606;2023-04-30T10:28:52;17.80;99.90
7502;DHT22;3792;47.740;7.606;2023-04-30T10:31:21;17.80;99.90
7502;DHT22;3792;47.740;7.606;2023-04-30T10:33:56;17.90;99.90
7502;DHT22;3792;47.740;7.606;2023-04-30T10:36:34;18.00;99.90
7502;DHT22;3792;47.740;7.606;2023-04-30T10:39:04;18.00;99.90
7502;DHT22;3792;47.740;7.606;2023-04-30T10:41:31;18.00;99.90
7502;DHT22;3792;47.740;7.606;2023-04-30T10:44:01;18.00;99.90
7502;DHT22;3792;47.740;7.606;2023-04-30T10:46:33;18.00;99.90
7502;DHT22;3792;47.740;7.606;2023-04-30T10:49:01;17.90;99.90
7502;DHT22;3792;47.740;7.606;2023-04-30T10:51:43;17.90;99.90
7502;DHT22;3792;47.740;7.606;2023-04-30T10:54:11;18.00;99.90
7502;DHT22;3792;47.740;7.606;2023-04-30T10:56:39;18.00;99.90
7502;DHT22;3792;47.740;7.606;2023-04-30T10:59:07;18.10;99.90
7502;DHT22;3792;47.740;7.606;2023-04-30T11:01:57;18.20;99.90
7502;DHT22;3792;47.740;7.606;2023-04-30T11:04:25;18.20;99.90
7502;DHT22;3792;47.740;7.606;2023-04-30T11:07:00;18.20;99.90
7502;DHT22;3792;47.740;7.606;2023-04-30T11:09:38;18.10;99.90
7502;DHT22;3792;47.740;7.606;2023-04-30T11:12:11;18.10;99.90
7502;DHT22;3792;47.740;7.606;2023-04-30T11:14:43;18.10;99.90
7502;DHT22;3792;47.740;7.606;2023-04-30T11:17:21;18.20;99.90
7502;DHT22;3792;47.740;7.606;2023-04-30T11:19:50;18.30;99.90
7502;DHT22;3792;47.740;7.606;2023-04-30T11:22:22;18.30;99.90
7502;DHT22;3792;47.740;7.606;2023-04-30T11:24:59;18.20;99.90
7502;DHT22;3792;47.740;7.606;2023-04-30T11:27:28;18.10;99.90
7502;DHT22;3792;47.740;7.606;2023-04-30T11:29:56;18.20;99.90
7502;DHT22;3792;47.740;7.606;2023-04-30T11:32:31;18.40;99.90
7502;DHT22;3792;47.740;7.606;2023-04-30T11:34:59;18.60;99.90
7502;DHT22;3792;47.740;7.606;2023-04-30T11:37:30;18.80;99.90
7502;DHT22;3792;47.740;7.606;2023-04-30T11:40:00;19.00;99.90
7502;DHT22;3792;47.740;7.606;2023-04-30T11:42:28;19.00;99.90
7502;DHT22;3792;47.740;7.606;2023-04-30T11:45:05;19.10;99.90
7502;DHT22;3792;47.740;7.606;2023-04-30T11:47:42;19.00;99.90
7502;DHT22;3792;47.740;7.606;2023-04-30T11:50:10;19.00;99.90
7502;DHT22;3792;47.740;7.606;2023-04-30T11:52:38;19.20;99.90
7502;DHT22;3792;47.740;7.606;2023-04-30T11:55:11;19.20;99.90
7502;DHT22;3792;47.740;7.606;2023-04-30T11:57:41;19.20;99.90
7502;DHT22;3792;47.740;7.606;2023-04-30T12:00:14;19.10;99.90
7502;DHT22;3792;47.740;7.606;2023-04-30T12:02:45;19.20;99.90
7502;DHT22;3792;47.740;7.606;2023-04-30T12:05:14;19.20;99.90
7502;DHT22;3792;47.740;7.606;2023-04-30T12:07:59;19.40;99.90
7502;DHT22;3792;47.740;7.606;2023-04-30T12:10:30;19.30;99.90
7502;DHT22;3792;47.740;7.606;2023-04-30T12:12:58;19.30;99.90
7502;DHT22;3792;47.740;7.606;2023-04-30T12:15:27;19.00;99.90
7502;DHT22;3792;47.740;7.606;2023-04-30T12:17:57;19.00;99.90
7502;DHT22;3792;47.740;7.606;2023-04-30T12:20:26;18.90;99.90
7502;DHT22;3792;47.740;7.606;2023-04-30T12:22:53;19.00;99.90
7502;DHT22;3792;47.740;7.606;2023-04-30T12:25:21;19.10;99.90
7502;DHT22;3792;47.740;7.606;2023-04-30T12:27:49;19.20;99.90
7502;DHT22;3792;47.740;7.606;2023-04-30T12:30:19;19.10;99.90
7502;DHT22;3792;47.740;7.606;2023-04-30T12:32:49;19.10;99.90
7502;DHT22;3792;47.740;7.606;2023-04-30T12:35:19;19.20;99.90
7502;DHT22;3792;47.740;7.606;2023-04-30T12:37:47;19.30;99.90
7502;DHT22;3792;47.740;7.606;2023-04-30T12:40:17;19.40;99.90
7502;DHT22;3792;47.740;7.606;2023-04-30T12:42:45;19.30;99.90
7502;DHT22;3792;47.740;7.606;2023-04-30T12:45:13;19.30;99.90
7502;DHT22;3792;47.740;7.606;2023-04-30T12:47:59;19.30;99.90
7502;DHT22;3792;47.740;7.606;2023-04-30T12:50:28;19.50;99.90
7502;DHT22;3792;47.740;7.606;2023-04-30T12:53:01;19.60;99.90
7502;DHT22;3792;47.740;7.606;2023-04-30T12:55:29;19.70;99.90
7502;DHT22;3792;47.740;7.606;2023-04-30T12:58:06;19.60;99.90
7502;DHT22;3792;47.740;7.606;2023-04-30T13:00:47;19.70;99.90
7502;DHT22;3792;47.740;7.606;2023-04-30T13:03:16;19.70;99.90
7502;DHT22;3792;47.740;7.606;2023-04-30T13:05:52;19.70;99.90
7502;DHT22;3792;47.740;7.606;2023-04-30T13:08:20;19.60;99.90
7502;DHT22;3792;47.740;7.606;2023-04-30T13:10:47;19.50;99.90
7502;DHT22;3792;47.740;7.606;2023-04-30T13:13:16;19.60;99.90
7502;DHT22;3792;47.740;7.606;2023-04-30T13:15:45;19.70;99.90
7502;DHT22;3792;47.740;7.606;2023-04-30T13:18:12;19.80;99.90
7502;DHT22;3792;47.740;7.606;2023-04-30T13:20:40;19.90;99.90
7502;DHT22;3792;47.740;7.606;2023-04-30T13:23:09;19.90;99.90
7502;DHT22;3792;47.740;7.606;2023-04-30T13:25:38;19.90;99.90
7502;DHT22;3792;47.740;7.606;2023-04-30T13:28:05;19.90;99.90
7502;DHT22;3792;47.740;7.606;2023-04-30T13:30:32;20.00;99.90
7502;DHT22;3792;47.740;7.606;2023-04-30T13:32:59;20.10;99.90
7502;DHT22;3792;47.740;7.606;2023-04-30T13:35:27;20.60;99.90
7502;DHT22;3792;47.740;7.606;2023-04-30T13:37:54;20.90;99.90
7502;DHT22;3792;47.740;7.606;2023-04-30T13:40:24;20.90;99.90
7502;DHT22;3792;47.740;7.606;2023-04-30T13:42:52;21.00;99.80
7502;DHT22;3792;47.740;7.606;2023-04-30T13:45:20;20.90;99.90
7502;DHT22;3792;47.740;7.606;2023-04-30T13:47:47;20.80;99.90
7502;DHT22;3792;47.740;7.606;2023-04-30T13:50:14;20.90;99.60
7502;DHT22;3792;47.740;7.606;2023-04-30T13:52:41;20.90;99.60
7502;DHT22;3792;47.740;7.606;2023-04-30T13:55:09;20.90;99.30
7502;DHT22;3792;47.740;7.606;2023-04-30T13:57:38;20.90;99.40
7502;DHT22;3792;47.740;7.606;2023-04-30T14:00:07;20.60;99.30
7502;DHT22;3792;47.740;7.606;2023-04-30T14:02:34;20.40;98.90
7502;DHT22;3792;47.740;7.606;2023-04-30T14:05:02;20.00;99.40
